createdAt,value
2018-01-23T00:00:35.902Z,16.13
2018-01-23T00:03:04.551Z,15.17
2018-01-23T00:05:33.656Z,15.27
2018-01-23T00:08:02.013Z,15.47
2018-01-23T00:10:30.108Z,9.40
2018-01-23T00:12:58.383Z,12.53
2018-01-23T00:15:26.738Z,14.30
2018-01-23T00:17:56.705Z,19.47
2018-01-23T00:20:25.725Z,6.10
2018-01-23T00:22:59.422Z,10.40
2018-01-23T00:25:29.928Z,12.73
2018-01-23T00:28:00.431Z,14.57
2018-01-23T00:30:31.706Z,12.43
2018-01-23T00:32:59.886Z,9.17
2018-01-23T00:35:33.890Z,9.30
2018-01-23T00:38:03.202Z,13.23
2018-01-23T00:40:33.078Z,10.63
2018-01-23T00:43:01.775Z,8.20
2018-01-23T00:45:33.765Z,12.30
2018-01-23T00:48:02.687Z,10.17
2018-01-23T00:50:31.219Z,8.80
2018-01-23T00:53:00.290Z,7.60
2018-01-23T00:55:38.840Z,14.20
2018-01-23T00:58:09.543Z,11.00
2018-01-23T01:00:37.616Z,9.63
2018-01-23T01:03:11.198Z,10.80
2018-01-23T01:05:49.340Z,10.00
2018-01-23T01:08:17.273Z,8.87
2018-01-23T01:10:45.278Z,17.57
2018-01-23T01:13:14.144Z,23.90
2018-01-23T01:15:47.294Z,13.57
2018-01-23T01:18:19.929Z,13.00
2018-01-23T01:20:48.711Z,12.30
2018-01-23T01:23:18.536Z,10.70
2018-01-23T01:25:47.429Z,11.23
2018-01-23T01:28:21.489Z,13.47
2018-01-23T01:30:49.948Z,11.60
2018-01-23T01:33:25.348Z,12.97
2018-01-23T01:35:55.592Z,14.40
2018-01-23T01:38:26.143Z,39.53
2018-01-23T01:40:55.234Z,15.73
2018-01-23T01:43:25.482Z,28.97
2018-01-23T01:45:59.849Z,20.50
2018-01-23T01:48:53.983Z,11.77
2018-01-23T01:51:22.977Z,17.00
2018-01-23T01:53:52.387Z,8.87
2018-01-23T01:56:23.130Z,9.63
2018-01-23T01:58:53.012Z,11.13
2018-01-23T02:01:26.617Z,15.07
2018-01-23T02:03:56.362Z,17.77
2018-01-23T02:06:30.457Z,17.53
2018-01-23T02:09:02.672Z,8.70
2018-01-23T02:11:31.817Z,16.67
2018-01-23T02:14:01.977Z,17.20
2018-01-23T02:16:32.324Z,10.97
2018-01-23T02:19:06.753Z,14.77
2018-01-23T02:21:36.762Z,15.63
2018-01-23T02:24:07.001Z,21.70
2018-01-23T02:26:38.087Z,15.97
2018-01-23T02:29:06.875Z,17.80
2018-01-23T02:31:44.684Z,15.90
2018-01-23T02:34:12.938Z,20.87
2018-01-23T02:36:46.042Z,8.53
2018-01-23T02:39:14.601Z,21.93
2018-01-23T02:41:42.521Z,16.17
2018-01-23T02:44:10.564Z,15.37
2018-01-23T02:46:39.003Z,15.47
2018-01-23T02:49:07.935Z,10.80
2018-01-23T02:51:37.025Z,14.43
2018-01-23T02:54:07.757Z,18.90
2018-01-23T02:56:38.470Z,17.50
2018-01-23T02:59:07.091Z,17.40
2018-01-23T03:01:36.332Z,33.90
2018-01-23T03:04:04.664Z,25.10
2018-01-23T03:06:36.480Z,17.77
2018-01-23T03:09:12.453Z,13.97
2018-01-23T03:11:44.215Z,21.53
2018-01-23T03:14:17.320Z,25.03
2018-01-23T03:16:49.664Z,34.33
2018-01-23T03:19:19.064Z,27.30
2018-01-23T03:21:49.398Z,39.77
2018-01-23T03:24:19.439Z,22.03
2018-01-23T03:26:48.795Z,23.97
2018-01-23T03:29:18.661Z,14.90
2018-01-23T03:31:48.078Z,24.70
2018-01-23T03:34:17.675Z,17.00
2018-01-23T03:36:46.773Z,16.10
2018-01-23T03:39:16.425Z,12.00
2018-01-23T03:41:45.867Z,16.50
2018-01-23T03:44:16.532Z,22.20
2018-01-23T03:46:49.135Z,21.07
2018-01-23T03:49:18.800Z,16.53
2018-01-23T03:51:48.901Z,28.77
2018-01-23T03:54:22.347Z,35.17
2018-01-23T03:56:52.396Z,27.23
2018-01-23T03:59:21.191Z,35.40
2018-01-23T04:01:55.951Z,24.97
2018-01-23T04:04:27.689Z,26.93
2018-01-23T04:07:01.197Z,41.67
2018-01-23T04:09:29.285Z,34.40
2018-01-23T04:12:02.358Z,30.50
2018-01-23T04:14:33.302Z,23.40
2018-01-23T04:17:01.806Z,24.57
2018-01-23T04:19:30.892Z,23.40
2018-01-23T04:22:00.167Z,33.40
2018-01-23T04:24:38.738Z,22.67
2018-01-23T04:27:07.089Z,33.03
2018-01-23T04:29:37.630Z,23.20
2018-01-23T04:32:11.838Z,39.57
2018-01-23T04:34:41.701Z,36.93
2018-01-23T04:37:10.301Z,27.57
2018-01-23T04:39:40.089Z,27.20
2018-01-23T04:42:13.564Z,25.03
2018-01-23T04:44:53.919Z,10.77
2018-01-23T04:47:23.201Z,23.33
2018-01-23T04:49:52.510Z,14.20
2018-01-23T04:52:23.864Z,10.30
2018-01-23T04:54:59.530Z,13.87
2018-01-23T04:57:29.031Z,15.80
2018-01-23T04:59:58.895Z,17.50
2018-01-23T05:02:28.650Z,12.27
2018-01-23T05:04:57.687Z,9.53
2018-01-23T05:07:27.100Z,13.63
2018-01-23T05:10:04.821Z,16.23
2018-01-23T05:12:34.092Z,16.20
2018-01-23T05:15:02.606Z,13.13
2018-01-23T05:17:35.706Z,15.87
2018-01-23T05:20:05.285Z,20.60
2018-01-23T05:22:34.921Z,13.50
2018-01-23T05:25:06.524Z,12.30
2018-01-23T05:27:35.835Z,14.10
2018-01-23T05:30:05.031Z,10.00
2018-01-23T05:32:33.464Z,14.60
2018-01-23T05:35:02.710Z,17.60
2018-01-23T05:37:32.108Z,19.27
2018-01-23T05:40:01.874Z,17.20
2018-01-23T05:42:33.611Z,19.53
2018-01-23T05:45:03.412Z,35.63
2018-01-23T05:47:33.256Z,23.17
2018-01-23T05:50:04.619Z,35.43
2018-01-23T05:52:38.563Z,26.60
2018-01-23T05:55:12.673Z,23.37
2018-01-23T05:57:41.424Z,19.00
2018-01-23T06:00:16.053Z,19.63
2018-01-23T06:02:49.171Z,20.23
2018-01-23T06:05:17.550Z,24.43
2018-01-23T06:07:45.755Z,16.30
2018-01-23T06:10:14.455Z,25.17
2018-01-23T06:12:43.942Z,29.33
2018-01-23T06:15:14.707Z,22.87
2018-01-23T06:17:43.462Z,17.13
2018-01-23T06:20:19.491Z,20.90
2018-01-23T06:22:49.869Z,24.07
2018-01-23T06:25:20.244Z,21.60
2018-01-23T06:27:49.850Z,35.60
2018-01-23T06:30:19.273Z,19.83
2018-01-23T06:32:47.160Z,23.10
2018-01-23T06:35:15.240Z,27.67
2018-01-23T06:37:43.386Z,32.10
2018-01-23T06:40:15.841Z,35.50
2018-01-23T06:42:44.410Z,30.23
2018-01-23T06:45:12.317Z,30.83
2018-01-23T06:47:40.182Z,30.33
2018-01-23T06:50:08.024Z,21.20
2018-01-23T06:52:35.990Z,30.40
2018-01-23T06:55:03.986Z,24.90
2018-01-23T06:57:32.029Z,28.53
2018-01-23T06:59:59.895Z,22.53
2018-01-23T07:02:27.866Z,20.90
2018-01-23T07:04:55.968Z,20.63
2018-01-23T07:07:23.925Z,14.73
2018-01-23T07:09:51.874Z,20.30
2018-01-23T07:12:20.243Z,24.40
2018-01-23T07:14:48.142Z,14.30
2018-01-23T07:17:16.013Z,15.33
2018-01-23T07:19:43.874Z,21.30
2018-01-23T07:22:11.776Z,21.40
2018-01-23T07:24:40.335Z,14.93
2018-01-23T07:27:09.001Z,20.97
2018-01-23T07:29:36.779Z,14.80
2018-01-23T07:32:04.638Z,23.90
2018-01-23T07:34:32.505Z,16.37
2018-01-23T07:37:00.245Z,18.23
2018-01-23T07:39:28.240Z,19.77
2018-01-23T07:41:56.106Z,16.90
2018-01-23T07:44:23.913Z,43.27
2018-01-23T07:46:51.731Z,27.00
2018-01-23T07:49:20.208Z,14.23
2018-01-23T07:51:47.977Z,15.73
2018-01-23T07:54:15.926Z,20.77
2018-01-23T07:56:43.671Z,20.70
2018-01-23T07:59:11.430Z,27.13
2018-01-23T08:01:39.208Z,14.10
2018-01-23T08:04:07.190Z,12.47
2018-01-23T08:06:35.261Z,17.40
2018-01-23T08:09:03.225Z,17.63
2018-01-23T08:11:31.905Z,17.83
2018-01-23T08:14:00.431Z,18.67
2018-01-23T08:16:28.281Z,23.03
2018-01-23T08:18:57.054Z,19.40
2018-01-23T08:21:25.962Z,66.20
2018-01-23T08:23:54.803Z,302.10
2018-01-23T08:26:22.697Z,150.27
2018-01-23T08:28:50.522Z,49.50
2018-01-23T08:31:18.443Z,17.20
2018-01-23T08:33:46.422Z,13.80
2018-01-23T08:36:14.452Z,44.53
2018-01-23T08:38:42.772Z,25.37
2018-01-23T08:41:12.537Z,17.80
2018-01-23T08:43:41.729Z,10.70
2018-01-23T08:46:09.719Z,16.10
2018-01-23T08:48:38.647Z,12.63
2018-01-23T08:51:11.057Z,13.33
2018-01-23T08:53:39.676Z,15.73
2018-01-23T08:56:07.562Z,18.17
2018-01-23T08:58:36.323Z,15.20
2018-01-23T09:01:04.628Z,14.93
2018-01-23T09:03:33.976Z,13.60
2018-01-23T09:06:01.873Z,22.60
2018-01-23T09:08:31.723Z,14.60
2018-01-23T09:11:01.058Z,16.23
2018-01-23T09:13:29.364Z,15.27
2018-01-23T09:16:00.489Z,14.20
2018-01-23T09:18:28.369Z,12.70
2018-01-23T09:20:57.587Z,14.07
2018-01-23T09:23:27.747Z,20.37
2018-01-23T09:26:00.024Z,17.47
2018-01-23T09:28:28.036Z,19.83
2018-01-23T09:30:55.906Z,24.57
2018-01-23T09:33:25.336Z,14.73
2018-01-23T09:35:53.384Z,29.13
2018-01-23T09:38:21.267Z,27.83
2018-01-23T09:40:49.881Z,12.37
2018-01-23T09:43:18.520Z,12.03
2018-01-23T09:45:46.474Z,17.53
2018-01-23T09:48:14.333Z,12.77
2018-01-23T09:50:42.204Z,11.43
2018-01-23T09:53:09.984Z,14.50
2018-01-23T09:55:39.096Z,15.77
2018-01-23T09:58:07.041Z,20.53
2018-01-23T10:00:34.891Z,15.53
2018-01-23T10:03:02.781Z,13.63
2018-01-23T10:05:30.650Z,14.50
2018-01-23T10:07:58.502Z,15.73
2018-01-23T10:10:26.576Z,18.13
2018-01-23T10:12:56.366Z,17.53
2018-01-23T10:15:24.153Z,29.83
2018-01-23T10:17:52.321Z,17.10
2018-01-23T10:20:20.289Z,16.20
2018-01-23T10:22:48.385Z,17.93
2018-01-23T10:25:16.135Z,21.33
2018-01-23T10:27:44.764Z,14.40
2018-01-23T10:30:14.500Z,16.30
2018-01-23T10:32:43.306Z,22.40
2018-01-23T10:35:11.307Z,15.13
2018-01-23T10:37:39.068Z,12.47
2018-01-23T10:40:07.638Z,15.00
2018-01-23T10:42:35.466Z,15.07
2018-01-23T10:45:03.216Z,11.67
2018-01-23T10:47:30.984Z,13.23
2018-01-23T10:49:58.841Z,17.07
2018-01-23T10:52:27.478Z,16.60
2018-01-23T10:54:55.360Z,7.37
2018-01-23T10:57:23.209Z,11.13
2018-01-23T10:59:51.042Z,13.03
2018-01-23T11:02:19.136Z,18.23
2018-01-23T11:04:46.931Z,22.23
2018-01-23T11:07:14.909Z,11.87
2018-01-23T11:09:43.548Z,8.63
2018-01-23T11:12:11.699Z,21.53
2018-01-23T11:14:39.622Z,7.77
2018-01-23T11:17:09.134Z,9.53
2018-01-23T11:19:37.107Z,15.20
2018-01-23T11:22:06.821Z,16.47
2018-01-23T11:24:35.570Z,12.27
2018-01-23T11:27:05.404Z,8.37
2018-01-23T11:29:33.672Z,7.97
2018-01-23T11:32:01.624Z,11.03
2018-01-23T11:34:29.591Z,10.60
2018-01-23T11:37:02.986Z,9.87
2018-01-23T11:39:30.752Z,13.93
2018-01-23T11:41:58.954Z,21.70
2018-01-23T11:44:27.302Z,17.23
2018-01-23T11:46:55.202Z,15.70
2018-01-23T11:49:26.225Z,17.83
2018-01-23T11:51:54.629Z,9.53
2018-01-23T11:54:23.198Z,13.30
2018-01-23T11:56:51.973Z,13.77
2018-01-23T11:59:19.959Z,15.40
2018-01-23T12:01:49.349Z,14.07
2018-01-23T12:04:17.301Z,12.60
2018-01-23T12:06:45.131Z,15.03
2018-01-23T12:09:13.855Z,13.60
2018-01-23T12:11:41.646Z,15.90
2018-01-23T12:14:10.400Z,13.27
2018-01-23T12:16:38.289Z,11.70
2018-01-23T12:19:06.154Z,11.30
2018-01-23T12:21:34.141Z,11.97
2018-01-23T12:24:01.877Z,10.93
2018-01-23T12:26:30.514Z,14.23
2018-01-23T12:28:59.211Z,12.03
2018-01-23T12:31:27.030Z,10.40
2018-01-23T12:33:55.590Z,12.40
2018-01-23T12:36:24.481Z,10.77
2018-01-23T12:38:52.243Z,8.47
2018-01-23T12:41:20.228Z,12.90
2018-01-23T12:43:48.011Z,10.50
2018-01-23T12:46:15.944Z,16.73
2018-01-23T12:48:43.729Z,11.73
2018-01-23T12:51:11.516Z,14.87
2018-01-23T12:53:39.392Z,17.77
2018-01-23T12:56:08.027Z,13.40
2018-01-23T12:58:36.816Z,17.03
2018-01-23T13:01:04.798Z,13.17
2018-01-23T13:03:32.665Z,12.77
2018-01-23T13:06:00.481Z,13.67
2018-01-23T13:08:28.261Z,14.57
2018-01-23T13:10:56.530Z,16.00
2018-01-23T13:13:24.312Z,27.87
2018-01-23T13:15:52.096Z,29.67
2018-01-23T13:18:19.912Z,12.60
2018-01-23T13:20:48.549Z,18.27
2018-01-23T13:23:16.422Z,24.50
2018-01-23T13:25:44.286Z,21.73
2018-01-23T13:28:12.237Z,13.47
2018-01-23T13:30:41.127Z,17.90
2018-01-23T13:33:09.229Z,16.00
2018-01-23T13:35:37.372Z,19.37
2018-01-23T13:38:05.441Z,28.57
2018-01-23T13:40:33.411Z,13.27
2018-01-23T13:43:01.429Z,12.90
2018-01-23T13:45:30.081Z,14.57
2018-01-23T13:48:05.824Z,22.07
2018-01-23T13:50:37.456Z,12.63
2018-01-23T13:53:06.079Z,16.60
2018-01-23T13:55:34.145Z,10.70
2018-01-23T13:58:02.404Z,16.53
2018-01-23T14:00:30.515Z,9.97
2018-01-23T14:02:59.641Z,15.43
2018-01-23T14:05:28.806Z,12.10
2018-01-23T14:07:56.873Z,9.53
2018-01-23T14:10:29.383Z,8.23
2018-01-23T14:12:57.444Z,5.03
2018-01-23T14:15:26.751Z,7.53
2018-01-23T14:17:54.895Z,12.60
2018-01-23T14:20:24.499Z,13.77
2018-01-23T14:22:53.996Z,6.03
2018-01-23T14:25:22.316Z,14.07
2018-01-23T14:27:50.522Z,11.33
2018-01-23T14:30:18.317Z,13.13
2018-01-23T14:32:47.594Z,14.47
2018-01-23T14:35:16.094Z,16.10
2018-01-23T14:37:44.067Z,9.53
2018-01-23T14:40:12.626Z,9.23
2018-01-23T14:42:41.010Z,8.07
2018-01-23T14:45:10.045Z,8.50
2018-01-23T14:47:39.017Z,8.73
2018-01-23T14:50:07.894Z,10.20
2018-01-23T14:52:36.152Z,12.60
2018-01-23T14:55:09.467Z,8.77
2018-01-23T14:57:46.131Z,9.20
2018-01-23T15:00:14.106Z,7.10
2018-01-23T15:02:41.973Z,11.20
2018-01-23T15:05:10.335Z,16.50
2018-01-23T15:07:38.798Z,10.67
2018-01-23T15:10:09.161Z,11.13
2018-01-23T15:12:42.476Z,8.67
2018-01-23T15:15:10.505Z,14.10
2018-01-23T15:17:40.497Z,8.63
2018-01-23T15:20:09.101Z,15.23
2018-01-23T15:22:36.918Z,16.23
2018-01-23T15:25:05.549Z,15.53
2018-01-23T15:27:33.931Z,16.33
2018-01-23T15:30:01.923Z,12.73
2018-01-23T15:32:30.884Z,13.30
2018-01-23T15:34:58.965Z,15.70
2018-01-23T15:37:29.504Z,12.70
2018-01-23T15:39:57.591Z,10.50
2018-01-23T15:45:20.925Z,10.20
2018-01-23T15:47:48.945Z,16.67
2018-01-23T15:50:17.055Z,16.70
2018-01-23T15:52:45.734Z,16.50
2018-01-23T15:55:14.618Z,18.63
2018-01-23T15:57:44.234Z,17.17
2018-01-23T16:00:13.090Z,26.73
2018-01-23T16:02:41.359Z,22.20
2018-01-23T16:05:09.615Z,24.67
2018-01-23T16:07:38.424Z,21.87
2018-01-23T16:10:06.415Z,26.90
2018-01-23T16:12:34.462Z,25.43
2018-01-23T16:15:02.345Z,19.30
2018-01-23T16:17:30.333Z,34.10
2018-01-23T16:19:58.288Z,22.70
2018-01-23T16:22:26.279Z,18.30
2018-01-23T16:24:55.109Z,22.23
2018-01-23T16:27:22.932Z,29.97
2018-01-23T16:29:51.990Z,25.27
2018-01-23T16:32:19.882Z,39.67
2018-01-23T16:34:47.745Z,32.80
2018-01-23T16:37:15.710Z,29.47
2018-01-23T16:39:43.675Z,36.10
2018-01-23T16:42:11.812Z,38.70
2018-01-23T16:44:39.837Z,39.97
2018-01-23T16:47:07.786Z,32.33
2018-01-23T16:49:35.636Z,24.93
2018-01-23T16:52:03.622Z,24.30
2018-01-23T16:54:31.667Z,30.30
2018-01-23T16:57:01.195Z,28.33
2018-01-23T16:59:31.433Z,28.50
2018-01-23T17:02:00.004Z,29.23
2018-01-23T17:04:28.664Z,25.40
2018-01-23T17:06:56.551Z,31.03
2018-01-23T17:09:24.412Z,25.10
2018-01-23T17:11:52.281Z,33.43
2018-01-23T17:14:20.134Z,34.17
2018-01-23T17:16:49.124Z,25.23
2018-01-23T17:19:16.994Z,141.27
2018-01-23T17:21:44.978Z,39.10
2018-01-23T17:24:13.031Z,39.43
2018-01-23T17:26:41.028Z,30.17
2018-01-23T17:29:08.972Z,37.57
2018-01-23T17:31:36.967Z,64.47
2018-01-23T17:34:06.339Z,43.77
2018-01-23T17:36:34.236Z,41.73
2018-01-23T17:39:02.246Z,40.10
2018-01-23T17:41:30.363Z,40.97
2018-01-23T17:43:58.521Z,40.67
2018-01-23T17:46:26.719Z,32.20
2018-01-23T17:48:55.482Z,36.20
2018-01-23T17:51:23.452Z,36.17
2018-01-23T17:53:51.521Z,28.90
2018-01-23T17:56:19.596Z,29.80
2018-01-23T17:58:47.698Z,30.73
2018-01-23T18:01:15.737Z,29.27
2018-01-23T18:03:43.630Z,26.70
2018-01-23T18:06:11.879Z,27.90
2018-01-23T18:08:39.748Z,29.97
2018-01-23T18:11:07.651Z,31.03
2018-01-23T18:13:35.493Z,31.30
2018-01-23T18:16:03.756Z,35.50
2018-01-23T18:18:31.913Z,41.57
2018-01-23T18:21:01.872Z,35.87
2018-01-23T18:23:32.960Z,37.60
2018-01-23T18:26:02.536Z,40.00
2018-01-23T18:28:32.958Z,62.90
2018-01-23T18:31:04.783Z,48.23
2018-01-23T18:33:35.584Z,38.90
2018-01-23T18:36:05.338Z,43.53
2018-01-23T18:38:35.645Z,69.67
2018-01-23T18:41:06.448Z,68.83
2018-01-23T18:43:36.781Z,48.07
2018-01-23T18:46:07.395Z,46.87
2018-01-23T18:48:38.552Z,54.43
2018-01-23T18:51:11.165Z,54.07
2018-01-23T18:53:44.101Z,47.67
2018-01-23T18:56:15.723Z,61.37
2018-01-23T18:58:48.425Z,53.30
2018-01-23T19:01:19.625Z,49.37
2018-01-23T19:03:48.332Z,60.33
2018-01-23T19:06:16.480Z,73.73
2018-01-23T19:08:44.655Z,58.27
2018-01-23T19:11:12.626Z,61.63
2018-01-23T19:13:40.692Z,56.80
2018-01-23T19:16:09.185Z,63.07
2018-01-23T19:18:37.353Z,46.33
2018-01-23T19:21:07.528Z,48.87
2018-01-23T19:23:35.951Z,47.07
2018-01-23T19:26:04.456Z,46.63
2018-01-23T19:28:32.601Z,47.90
2018-01-23T19:31:00.981Z,40.67
2018-01-23T19:33:32.486Z,54.20
2018-01-23T19:36:03.106Z,50.40
2018-01-23T19:38:32.149Z,41.70
2018-01-23T19:41:01.258Z,42.83
2018-01-23T19:43:30.243Z,39.37
2018-01-23T19:45:59.440Z,37.07
2018-01-23T19:48:28.749Z,31.50
2018-01-23T19:50:57.775Z,36.20
2018-01-23T19:53:27.147Z,34.67
2018-01-23T19:55:55.111Z,32.90
2018-01-23T19:58:23.482Z,118.60
2018-01-23T20:00:51.729Z,52.27
2018-01-23T20:03:23.536Z,72.13
2018-01-23T20:05:55.238Z,59.03
2018-01-23T20:08:27.433Z,52.57
2018-01-23T20:11:00.148Z,29.50
2018-01-23T20:13:29.062Z,29.13
2018-01-23T20:15:57.032Z,28.60
2018-01-23T20:18:26.120Z,40.03
2018-01-23T20:20:55.685Z,32.03
2018-01-23T20:23:24.445Z,25.07
2018-01-23T20:25:52.503Z,24.90
2018-01-23T20:28:21.338Z,25.80
2018-01-23T20:30:49.607Z,33.83
2018-01-23T20:33:17.817Z,20.07
2018-01-23T20:35:45.854Z,25.13
2018-01-23T20:38:14.036Z,29.00
2018-01-23T20:40:42.115Z,24.27
2018-01-23T20:43:10.081Z,30.80
2018-01-23T20:45:37.957Z,28.50
2018-01-23T20:48:06.308Z,23.60
2018-01-23T20:50:34.483Z,27.13
2018-01-23T20:53:02.836Z,25.50
2018-01-23T20:55:31.165Z,22.63
2018-01-23T20:58:00.566Z,28.77
2018-01-23T21:00:28.513Z,30.70
2018-01-23T21:02:57.080Z,28.50
2018-01-23T21:05:24.953Z,24.90
2018-01-23T21:07:52.926Z,20.60
2018-01-23T21:10:21.097Z,23.07
2018-01-23T21:12:49.087Z,27.80
2018-01-23T21:15:17.240Z,26.47
2018-01-23T21:17:45.247Z,26.73
2018-01-23T21:20:13.124Z,28.53
2018-01-23T21:22:41.787Z,29.83
2018-01-23T21:25:09.750Z,28.53
2018-01-23T21:27:37.915Z,23.90
2018-01-23T21:30:05.895Z,27.97
2018-01-23T21:32:33.759Z,23.17
2018-01-23T21:35:01.648Z,26.43
2018-01-23T21:37:30.296Z,30.93
2018-01-23T21:39:58.464Z,34.67
2018-01-23T21:42:26.377Z,30.43
2018-01-23T21:44:54.405Z,31.13
2018-01-23T21:47:22.678Z,32.70
2018-01-23T21:49:50.417Z,38.10
2018-01-23T21:52:18.203Z,30.00
2018-01-23T21:54:46.586Z,28.13
2018-01-23T21:57:14.589Z,32.27
2018-01-23T21:59:42.484Z,29.80
2018-01-23T22:02:10.379Z,30.37
2018-01-23T22:04:38.365Z,26.90
2018-01-23T22:07:06.425Z,27.83
2018-01-23T22:09:34.326Z,26.10
2018-01-23T22:12:02.174Z,32.43
2018-01-23T22:14:29.904Z,32.33
2018-01-23T22:16:58.012Z,34.53
2018-01-23T22:19:25.849Z,27.77
2018-01-23T22:21:53.641Z,34.07
2018-01-23T22:24:21.708Z,31.80
2018-01-23T22:26:49.636Z,33.40
2018-01-23T22:29:17.534Z,28.77
2018-01-23T22:31:45.394Z,30.50
2018-01-23T22:34:13.191Z,27.60
2018-01-23T22:36:41.006Z,28.20
2018-01-23T22:39:09.014Z,24.10
2018-01-23T22:41:36.884Z,23.70
2018-01-23T22:44:04.642Z,23.93
2018-01-23T22:46:32.508Z,16.67
2018-01-23T22:49:00.463Z,15.70
2018-01-23T22:51:28.431Z,17.30
2018-01-23T22:53:56.497Z,15.10
2018-01-23T22:56:25.389Z,8.57
2018-01-23T22:58:53.130Z,12.07
2018-01-23T23:01:21.126Z,10.77
2018-01-23T23:03:48.987Z,9.80
2018-01-23T23:06:16.881Z,12.10
2018-01-23T23:08:45.059Z,9.67
2018-01-23T23:11:13.630Z,9.40
2018-01-23T23:13:41.606Z,13.60
2018-01-23T23:16:09.471Z,6.47
2018-01-23T23:18:37.353Z,9.77
2018-01-23T23:21:05.934Z,6.77
2018-01-23T23:23:34.877Z,8.60
2018-01-23T23:26:02.626Z,9.50
2018-01-23T23:28:30.502Z,10.30
2018-01-23T23:30:58.335Z,8.77
2018-01-23T23:33:26.885Z,9.77
2018-01-23T23:35:54.704Z,12.10
2018-01-23T23:38:22.539Z,13.97
2018-01-23T23:40:51.102Z,11.10
2018-01-23T23:43:19.689Z,32.97
2018-01-23T23:45:47.528Z,16.20
2018-01-23T23:48:15.302Z,21.83
2018-01-23T23:50:43.089Z,19.33
2018-01-23T23:53:12.383Z,8.50
2018-01-23T23:55:40.221Z,6.10
2018-01-23T23:58:08.219Z,4.77
